Time;durP1;ratioP1;P1;durP2;ratioP2;P2;SDS_P1;SDS_P2;PMS_P1;PMS_P2;Temp;Humidity;BMP_temperature;BMP_pressure;BME280_temperature;BME280_humidity;BME280_pressure;Samples;Min_cycle;Max_cycle;Signal;HPM_P1;HPM_P2
2022/11/26 00:00:25;;;;;;;4.55;3.70;;;;;;;3.95;97.71;62402.97;4999170;28;20246;-79
2022/11/26 00:02:53;;;;;;;8.80;6.25;;;;;;;3.93;97.60;62407.97;5005852;28;20222;-78
2022/11/26 00:05:23;;;;;;;4.70;4.30;;;;;;;3.71;97.94;62380.81;5000681;28;20230;-77
2022/11/26 00:07:54;;;;;;;3.97;3.58;;;;;;;3.62;97.96;62373.56;4987591;28;20200;-78
2022/11/26 00:10:25;;;;;;;3.42;3.13;;;;;;;3.51;97.46;62363.28;5003552;28;20225;-79
2022/11/26 00:12:52;;;;;;;2.70;2.47;;;;;;;3.32;97.40;62341.22;5005329;28;20246;-79
2022/11/26 00:15:22;;;;;;;2.00;1.80;;;;;;;3.31;96.63;62342.19;5005554;28;20574;-79
2022/11/26 00:17:49;;;;;;;2.10;1.90;;;;;;;3.23;97.48;62331.97;5004788;28;20207;-78
2022/11/26 00:20:17;;;;;;;2.33;2.13;;;;;;;3.15;97.71;62325.75;4989863;28;20223;-79
2022/11/26 00:22:48;;;;;;;3.50;2.85;;;;;;;3.17;96.71;62330.31;4986415;28;20222;-78
2022/11/26 00:25:18;;;;;;;2.75;2.50;;;;;;;3.10;96.47;62321.13;5002778;28;20422;-78
2022/11/26 00:27:47;;;;;;;2.45;2.25;;;;;;;3.07;96.42;62312.50;5004061;28;20188;-79
2022/11/26 00:30:17;;;;;;;2.30;2.08;;;;;;;2.99;96.61;62309.81;5007278;28;20227;-78
2022/11/26 00:32:44;;;;;;;2.30;2.10;;;;;;;2.97;96.61;62304.75;5007709;28;20540;-78
2022/11/26 00:35:11;;;;;;;2.40;2.20;;;;;;;2.96;97.08;62301.69;5005535;28;20234;-78
2022/11/26 00:37:44;;;;;;;2.22;2.05;;;;;;;2.95;97.65;62307.72;4997205;28;20200;-78
2022/11/26 00:40:19;;;;;;;2.67;2.47;;;;;;;2.93;98.53;62298.09;4985732;28;20227;-79
2022/11/26 00:42:48;;;;;;;3.67;3.28;;;;;;;2.90;98.91;62297.53;4992814;28;20203;-80
2022/11/26 00:45:19;;;;;;;2.50;2.30;;;;;;;2.98;98.15;62301.25;5005996;28;20224;-79
2022/11/26 00:47:46;;;;;;;4.07;3.20;;;;;;;2.94;98.43;62304.69;5003571;28;20204;-79
2022/11/26 00:50:15;;;;;;;4.82;4.15;;;;;;;2.90;98.99;62300.56;5007845;28;20378;-77
2022/11/26 00:52:43;;;;;;;9.38;5.13;;;;;;;2.87;98.50;62296.97;5008647;28;20197;-78
2022/11/26 00:55:27;;;;;;;12.70;7.70;;;;;;;2.80;99.15;62292.28;5003662;28;20275;-78
2022/11/26 00:57:56;;;;;;;9.48;6.53;;;;;;;2.77;99.66;62286.69;4990592;28;20235;-78
2022/11/26 01:00:25;;;;;;;7.72;4.97;;;;;;;2.75;100.00;62282.63;4988728;28;20427;-78
2022/11/26 01:02:52;;;;;;;4.57;4.18;;;;;;;2.79;100.00;62288.75;5006867;28;20229;-78
2022/11/26 01:05:20;;;;;;;8.30;4.90;;;;;;;2.72;100.00;62279.56;4998213;28;20227;-78
2022/11/26 01:07:47;;;;;;;5.90;4.85;;;;;;;2.68;100.00;62274.91;4989251;28;20203;-77
2022/11/26 01:10:21;;;;;;;4.63;4.20;;;;;;;2.71;100.00;62278.03;4989822;28;20290;-78
2022/11/26 01:12:48;;;;;;;6.32;3.88;;;;;;;2.69;100.00;62275.97;4988748;28;20357;-77
2022/11/26 01:15:18;;;;;;;3.65;3.30;;;;;;;2.70;100.00;62277.50;5006738;28;20226;-78
2022/11/26 01:17:46;;;;;;;4.43;3.75;;;;;;;2.59;100.00;62265.69;5007470;28;20221;-78
2022/11/26 01:20:23;;;;;;;4.38;3.88;;;;;;;2.66;100.00;62272.88;5009269;28;20223;-77
2022/11/26 01:22:51;;;;;;;8.05;4.30;;;;;;;2.62;100.00;62269.28;5004488;28;20215;-78
2022/11/26 01:25:18;;;;;;;5.30;4.38;;;;;;;2.58;100.00;62262.13;5007942;28;20269;-79
2022/11/26 01:27:45;;;;;;;6.65;5.07;;;;;;;2.56;100.00;62260.06;5007733;28;20378;-78
2022/11/26 01:30:19;;;;;;;6.70;4.72;;;;;;;2.56;100.00;62267.63;5007827;28;20231;-78
2022/11/26 01:32:47;;;;;;;6.13;4.15;;;;;;;2.58;100.00;62264.66;5007968;28;20202;-78
2022/11/26 01:35:14;;;;;;;5.88;5.00;;;;;;;2.63;100.00;62274.81;5007510;28;20253;-77
2022/11/26 01:37:42;;;;;;;7.93;5.60;;;;;;;2.67;100.00;62274.41;5009717;28;20199;-78
2022/11/26 01:40:31;;;;;;;9.02;5.32;;;;;;;2.65;100.00;62274.34;5005199;28;20249;-78
2022/11/26 01:43:04;;;;;;;7.72;4.75;;;;;;;2.60;100.00;62266.72;5007172;28;20399;-79
2022/11/26 01:45:32;;;;;;;5.40;4.60;;;;;;;2.60;100.00;62264.19;5007874;28;20225;-78
2022/11/26 01:47:59;;;;;;;7.15;5.00;;;;;;;2.48;100.00;62254.91;5007226;28;20199;-78
2022/11/26 01:51:00;;;;;;;7.45;5.72;;;;;;;2.47;100.00;62251.34;5005342;28;20448;-79
2022/11/26 01:53:33;;;;;;;8.73;5.53;;;;;;;2.53;100.00;62264.53;5007366;28;20209;-78
2022/11/26 01:56:04;;;;;;;6.63;5.53;;;;;;;2.52;100.00;62261.50;5006841;28;20439;-78
2022/11/26 01:58:34;;;;;;;5.75;5.20;;;;;;;2.46;100.00;62252.31;5005352;28;20200;-78
2022/11/26 02:01:02;;;;;;;7.15;4.85;;;;;;;2.43;100.00;62251.75;5005505;28;20223;-78
2022/11/26 02:03:32;;;;;;;7.50;5.53;;;;;;;2.41;100.00;62249.69;5008396;28;20196;-78
2022/11/26 02:06:05;;;;;;;8.73;4.97;;;;;;;2.35;100.00;62246.56;5007266;28;20219;-78
2022/11/26 02:08:34;;;;;;;4.88;4.43;;;;;;;2.35;100.00;62239.53;5006133;28;20223;-78
2022/11/26 02:11:16;;;;;;;4.95;4.45;;;;;;;2.30;100.00;62234.41;5007333;28;20223;-78
2022/11/26 02:13:45;;;;;;;6.82;4.15;;;;;;;2.33;100.00;62237.50;5005871;28;20199;-79
2022/11/26 02:16:23;;;;;;;4.00;3.55;;;;;;;2.30;100.00;62231.91;5007231;28;20243;-78
2022/11/26 02:19:00;;;;;;;3.47;3.17;;;;;;;2.23;100.00;62227.22;5007473;28;20187;-79
2022/11/26 02:21:28;;;;;;;2.80;2.60;;;;;;;2.26;100.00;62232.31;4987734;28;20287;-79
2022/11/26 02:24:32;;;;;;;2.50;2.40;;;;;;;2.25;100.00;62226.78;5003155;28;20210;-78
2022/11/26 02:27:34;;;;;;;2.45;2.35;;;;;;;2.21;100.00;62227.69;4932767;29;20226;-78
2022/11/26 02:30:06;;;;;;;3.13;2.88;;;;;;;2.11;100.00;62214.91;5000213;28;20234;-78
2022/11/26 02:32:42;;;;;;;4.03;3.20;;;;;;;2.09;100.00;62215.34;5007334;28;20195;-80
2022/11/26 02:35:17;;;;;;;4.07;3.72;;;;;;;2.06;100.00;62214.28;5001129;28;20262;-79
2022/11/26 02:37:49;;;;;;;5.43;3.13;;;;;;;1.99;100.00;62207.59;4987865;28;20201;-78
2022/11/26 02:40:17;;;;;;;3.83;3.53;;;;;;;2.02;100.00;62208.16;5006909;28;20234;-78
2022/11/26 02:42:44;;;;;;;7.38;3.42;;;;;;;2.00;100.00;62205.59;5006203;28;20203;-79
2022/11/26 02:45:16;;;;;;;2.47;2.38;;;;;;;1.88;100.00;62198.81;5003162;28;20523;-78
2022/11/26 02:47:46;;;;;;;2.15;1.98;;;;;;;1.88;100.00;62196.28;5007554;28;20206;-79
2022/11/26 02:50:19;;;;;;;5.47;3.40;;;;;;;1.89;100.00;62194.31;5008320;28;20235;-79
2022/11/26 02:52:49;;;;;;;3.45;3.22;;;;;;;1.88;100.00;62196.28;5005357;28;20191;-79
2022/11/26 02:55:20;;;;;;;10.52;2.83;;;;;;;1.84;100.00;62189.69;5006774;28;20215;-80
2022/11/26 02:57:49;;;;;;;2.72;2.53;;;;;;;1.61;100.00;62165.56;5007141;28;20268;-78
2022/11/26 03:00:19;;;;;;;3.22;2.53;;;;;;;1.36;100.00;62140.44;5006255;28;20583;-79
2022/11/26 03:02:49;;;;;;;5.95;2.88;;;;;;;1.38;100.00;62146.97;4992084;28;20649;-79
2022/11/26 03:05:18;;;;;;;3.63;2.53;;;;;;;1.57;100.00;62161.47;4988021;28;20238;-79
2022/11/26 03:07:47;;;;;;;3.80;3.42;;;;;;;1.39;100.00;62142.97;4986197;28;20458;-80
2022/11/26 03:10:15;;;;;;;5.05;3.65;;;;;;;1.42;100.00;62148.56;4988062;28;20235;-78
2022/11/26 03:12:41;;;;;;;2.97;2.78;;;;;;;1.32;100.00;62138.81;5005527;28;20211;-77
2022/11/26 03:15:09;;;;;;;8.23;3.40;;;;;;;1.40;100.00;62147.03;5007636;28;20220;-79
2022/11/26 03:17:38;;;;;;;4.78;4.28;;;;;;;1.44;100.00;62153.66;5010458;28;20191;-79
2022/11/26 03:20:07;;;;;;;4.03;3.65;;;;;;;1.45;100.00;62147.13;5004166;28;20538;-79
2022/11/26 03:22:33;;;;;;;4.38;4.00;;;;;;;1.43;100.00;62149.59;5005380;28;20259;-80
2022/11/26 03:25:00;;;;;;;4.78;4.30;;;;;;;1.47;100.00;62151.22;5006427;28;20210;-78
2022/11/26 03:27:27;;;;;;;5.18;4.70;;;;;;;1.48;100.00;62154.72;5008046;28;20199;-79
2022/11/26 03:29:54;;;;;;;4.47;4.05;;;;;;;1.45;100.00;62149.16;5003407;28;20231;-79
2022/11/26 03:32:21;;;;;;;6.30;5.03;;;;;;;1.44;100.00;62148.63;5006299;28;20230;-78
2022/11/26 03:34:49;;;;;;;4.72;4.00;;;;;;;1.45;100.00;62147.13;5006245;28;20258;-79
2022/11/26 03:37:16;;;;;;;5.22;4.75;;;;;;;1.41;100.00;62148.06;5004705;28;20199;-78
2022/11/26 03:39:43;;;;;;;5.43;3.63;;;;;;;1.38;100.00;62144.97;4986576;28;20231;-78
2022/11/26 03:42:10;;;;;;;4.10;3.47;;;;;;;1.38;100.00;62149.50;4991676;28;20223;-77
2022/11/26 03:44:37;;;;;;;4.38;3.95;;;;;;;1.33;100.00;62134.81;5006504;28;20199;-78
2022/11/26 03:47:04;;;;;;;5.25;4.53;;;;;;;1.29;100.00;62133.25;5000875;28;20243;-80
2022/11/26 03:49:30;;;;;;;4.72;4.25;;;;;;;1.36;100.00;62140.44;4985969;28;20417;-78
2022/11/26 03:51:59;;;;;;;5.82;4.05;;;;;;;1.22;100.00;62128.06;5000577;28;20227;-80
2022/11/26 03:54:26;;;;;;;4.15;3.85;;;;;;;1.14;100.00;62118.34;5005295;28;20321;-78
2022/11/26 03:56:53;;;;;;;6.93;5.38;;;;;;;1.07;100.00;62108.16;5005730;28;20229;-78
2022/11/26 03:59:20;;;;;;;9.35;5.32;;;;;;;0.95;100.00;62100.84;5006487;28;20203;-78
2022/11/26 04:01:47;;;;;;;7.38;6.07;;;;;;;0.80;100.00;62082.97;5004887;28;20219;-79
2022/11/26 04:04:14;;;;;;;10.25;5.95;;;;;;;0.64;100.00;62067.06;5005111;28;20379;-79
2022/11/26 04:06:41;;;;;;;6.00;4.15;;;;;;;0.50;100.00;62057.72;5002519;28;20231;-79
2022/11/26 04:09:09;;;;;;;6.57;5.82;;;;;;;0.53;100.00;62057.78;5005474;28;20235;-79
2022/11/26 04:11:36;;;;;;;7.65;5.50;;;;;;;0.62;100.00;62059.50;5006381;28;20227;-79
2022/11/26 04:14:03;;;;;;;7.40;5.70;;;;;;;0.66;100.00;62068.59;5003574;28;20238;-78
2022/11/26 04:16:30;;;;;;;6.63;5.93;;;;;;;0.73;100.00;62076.31;4985786;28;20224;-78
2022/11/26 04:18:57;;;;;;;8.52;6.50;;;;;;;0.69;100.00;62071.69;4989962;28;20195;-78
2022/11/26 04:21:23;;;;;;;8.02;7.22;;;;;;;0.72;100.00;62080.31;5004318;28;20275;-77
2022/11/26 04:23:51;;;;;;;9.05;8.02;;;;;;;0.75;100.00;62075.34;4996051;28;20294;-78
2022/11/26 04:26:19;;;;;;;8.85;6.75;;;;;;;0.78;100.00;62083.41;4989978;28;20220;-79
2022/11/26 04:28:46;;;;;;;7.28;5.38;;;;;;;0.82;100.00;62082.53;5003629;28;20204;-78
2022/11/26 04:31:14;;;;;;;7.32;5.78;;;;;;;0.83;100.00;62089.06;5008699;28;20211;-78
2022/11/26 04:33:41;;;;;;;7.65;6.28;;;;;;;0.85;100.00;62085.59;5007509;28;20274;-78
2022/11/26 04:36:09;;;;;;;16.25;9.18;;;;;;;0.81;100.00;62086.50;5009594;28;20223;-79
2022/11/26 04:38:37;;;;;;;8.00;5.75;;;;;;;0.82;100.00;62087.53;5009398;28;20262;-78
2022/11/26 04:41:04;;;;;;;7.18;5.70;;;;;;;0.78;100.00;62080.91;5008494;28;20220;-79
2022/11/26 04:43:32;;;;;;;7.97;6.80;;;;;;;0.77;100.00;62080.41;5010904;28;20195;-78
2022/11/26 04:45:59;;;;;;;9.95;6.47;;;;;;;0.74;100.00;62079.81;5009481;28;20242;-79
2022/11/26 04:48:26;;;;;;;13.07;8.68;;;;;;;0.79;100.00;62087.47;5008952;28;20219;-79
2022/11/26 04:50:53;;;;;;;3.65;3.30;;;;;;;0.63;100.00;62063.03;5002787;28;20247;-78
2022/11/26 04:53:20;;;;;;;3.38;3.08;;;;;;;0.63;100.00;62071.06;4991092;28;20276;-79
2022/11/26 04:55:49;;;;;;;4.60;3.75;;;;;;;0.72;100.00;62074.78;4989868;28;20227;-79
2022/11/26 04:58:16;;;;;;;6.15;4.93;;;;;;;0.70;100.00;62075.22;5009362;28;20214;-79
2022/11/26 05:00:45;;;;;;;6.35;4.35;;;;;;;0.71;100.00;62073.72;5010083;28;20226;-80
2022/11/26 05:03:12;;;;;;;6.20;5.13;;;;;;;0.56;100.00;62063.38;5009160;28;20390;-79
2022/11/26 05:05:40;;;;;;;5.82;3.58;;;;;;;0.65;100.00;62062.59;5009898;28;20230;-79
2022/11/26 05:08:07;;;;;;;5.35;4.10;;;;;;;0.66;100.00;62069.13;5008005;28;20500;-79
2022/11/26 05:10:34;;;;;;;5.82;4.95;;;;;;;0.72;100.00;62077.78;4994409;28;20242;-78
2022/11/26 05:13:01;;;;;;;9.50;4.85;;;;;;;0.75;100.00;62078.38;5008609;28;20234;-79
2022/11/26 05:15:28;;;;;;;6.65;5.38;;;;;;;0.80;100.00;62082.97;5006037;28;20211;-79
2022/11/26 05:17:57;;;;;;;6.10;5.50;;;;;;;0.83;100.00;62083.53;5013451;28;20226;-78
2022/11/26 05:20:24;;;;;;;8.50;4.97;;;;;;;0.76;100.00;62076.38;5012921;28;20250;-79
2022/11/26 05:22:51;;;;;;;6.13;5.28;;;;;;;0.74;100.00;62074.31;5014510;28;20199;-79
2022/11/26 05:25:19;;;;;;;6.25;5.10;;;;;;;0.78;100.00;62080.91;5011968;28;20230;-82
2022/11/26 05:27:45;;;;;;;8.70;5.88;;;;;;;0.76;100.00;62078.88;5010507;28;20191;-80
2022/11/26 05:30:14;;;;;;;10.70;7.32;;;;;;;0.81;100.00;62084.00;5011386;28;20462;-77
2022/11/26 05:32:41;;;;;;;8.63;5.95;;;;;;;0.75;100.00;62077.84;5009565;28;20231;-79
2022/11/26 05:35:11;;;;;;;9.18;5.28;;;;;;;0.71;100.00;62068.72;5009749;28;20518;-77
2022/11/26 05:37:38;;;;;;;10.43;6.72;;;;;;;0.64;100.00;62064.06;5006981;28;20204;-78
2022/11/26 05:40:06;;;;;;;10.52;6.82;;;;;;;0.60;100.00;62063.00;5003608;28;20202;-81
2022/11/26 05:42:34;;;;;;;8.02;5.60;;;;;;;0.69;100.00;62076.72;5005617;28;20200;-80
2022/11/26 05:45:01;;;;;;;5.93;5.22;;;;;;;0.65;100.00;62065.59;4999931;28;20199;-78
2022/11/26 05:47:28;;;;;;;8.20;5.75;;;;;;;0.74;100.00;62077.31;5005043;28;20457;-78
2022/11/26 05:49:55;;;;;;;9.77;5.88;;;;;;;0.77;100.00;62080.41;5000580;28;20231;-79
2022/11/26 05:52:23;;;;;;;11.18;6.78;;;;;;;0.86;100.00;62089.63;5003246;28;20203;-78
2022/11/26 05:54:50;;;;;;;9.75;7.30;;;;;;;0.88;100.00;62093.69;5003612;28;20199;-79
2022/11/26 05:57:18;;;;;;;8.80;7.22;;;;;;;0.89;100.00;62092.72;4991634;28;20211;-79
2022/11/26 05:59:47;;;;;;;12.70;7.68;;;;;;;0.89;100.00;62100.25;4997988;28;20199;-79
2022/11/26 06:02:15;;;;;;;12.50;8.02;;;;;;;0.93;100.00;62094.31;4997643;28;20214;-78
2022/11/26 06:04:43;;;;;;;7.53;6.15;;;;;;;1.02;100.00;62101.03;5001177;28;20196;-78
2022/11/26 06:07:11;;;;;;;11.00;6.10;;;;;;;1.08;100.00;62111.69;5001000;28;20215;-79
2022/11/26 06:09:39;;;;;;;8.15;5.68;;;;;;;1.11;100.00;62115.28;4998839;28;20279;-79
2022/11/26 06:12:06;;;;;;;6.10;5.15;;;;;;;1.16;100.00;62120.41;5003459;28;20323;-78
2022/11/26 06:14:33;;;;;;;14.23;5.88;;;;;;;1.09;100.00;62112.72;4995410;28;20196;-79
2022/11/26 06:17:00;;;;;;;11.85;6.55;;;;;;;1.02;100.00;62105.53;4991287;28;20243;-79
2022/11/26 06:19:27;;;;;;;19.13;10.23;;;;;;;0.98;100.00;62101.44;4991951;28;20226;-78
2022/11/26 06:21:54;;;;;;;13.15;8.15;;;;;;;1.01;100.00;62105.03;5004030;28;20258;-78
2022/11/26 06:24:21;;;;;;;8.05;5.93;;;;;;;1.13;100.00;62117.34;5010886;28;20446;-78
2022/11/26 06:26:51;;;;;;;8.15;6.18;;;;;;;1.23;100.00;62124.56;5008316;28;20223;-79
2022/11/26 06:29:18;;;;;;;9.82;6.55;;;;;;;1.36;100.00;62142.94;5009464;28;20499;-79
2022/11/26 06:31:45;;;;;;;9.25;7.38;;;;;;;1.43;100.00;62152.63;5009321;28;20460;-77
2022/11/26 06:34:12;;;;;;;7.93;7.13;;;;;;;1.67;100.00;62172.25;5010274;28;20429;-78
2022/11/26 06:36:39;;;;;;;9.75;7.57;;;;;;;1.84;100.00;62186.66;5008204;28;20219;-78
2022/11/26 06:39:07;;;;;;;10.38;7.15;;;;;;;2.02;100.00;62210.19;5010786;28;20207;-78
2022/11/26 06:41:42;;;;;;;11.80;8.77;;;;;;;2.20;100.00;62224.16;5009266;28;20230;-79
2022/11/26 06:44:10;;;;;;;17.13;12.32;;;;;;;2.26;100.00;62232.81;5000090;28;20446;-79
2022/11/26 06:46:37;;;;;;;19.95;13.27;;;;;;;2.36;100.00;62240.06;5004291;28;20223;-79
2022/11/26 06:49:05;;;;;;;22.05;13.95;;;;;;;2.52;100.00;62258.50;5005424;28;20196;-79
2022/11/26 06:51:33;;;;;;;21.77;13.07;;;;;;;2.62;100.00;62266.25;4997971;28;20231;-77
2022/11/26 06:54:00;;;;;;;11.60;7.30;;;;;;;2.72;100.00;62274.00;4996922;28;20397;-77
2022/11/26 06:56:27;;;;;;;8.43;6.90;;;;;;;2.75;100.00;62282.63;4994996;28;20310;-79
2022/11/26 06:58:54;;;;;;;8.88;7.15;;;;;;;2.82;100.00;62289.31;4995930;28;20200;-79
2022/11/26 07:01:25;;;;;;;8.88;7.75;;;;;;;2.92;100.00;62297.59;4992475;28;20267;-78
2022/11/26 07:03:52;;;;;;;9.98;8.52;;;;;;;2.95;100.00;62303.19;4998292;28;20203;-77
2022/11/26 07:06:21;;;;;;;13.57;8.10;;;;;;;2.69;100.00;62273.97;4994062;28;20432;-80
2022/11/26 07:08:49;;;;;;;9.52;7.97;;;;;;;2.88;100.00;62295.47;4994623;28;20278;-77
2022/11/26 07:11:16;;;;;;;9.98;8.40;;;;;;;2.58;100.00;62264.66;4996509;28;20239;-77
2022/11/26 07:13:44;;;;;;;9.57;7.07;;;;;;;2.77;100.00;62281.66;4994381;28;20208;-78
2022/11/26 07:16:11;;;;;;;8.93;8.00;;;;;;;3.02;100.00;62312.88;5000072;28;20219;-78
2022/11/26 07:18:39;;;;;;;10.50;7.85;;;;;;;3.12;100.00;62325.19;4995278;28;20481;-77
2022/11/26 07:21:07;;;;;;;12.43;7.35;;;;;;;3.26;100.00;62335.03;4993745;28;20231;-77
2022/11/26 07:23:34;;;;;;;10.90;7.80;;;;;;;3.39;100.00;62350.94;4994578;28;20290;-77
2022/11/26 07:26:02;;;;;;;9.98;7.82;;;;;;;3.39;100.00;62345.91;4996076;28;20217;-78
2022/11/26 07:28:30;;;;;;;10.13;8.27;;;;;;;3.37;100.00;62345.84;4989212;28;20246;-77
2022/11/26 07:31:00;;;;;;;11.32;7.63;;;;;;;3.44;100.00;62348.53;4998274;28;20247;-78
2022/11/26 07:33:27;;;;;;;7.63;6.82;;;;;;;3.51;100.00;62360.25;4995639;28;20514;-78
2022/11/26 07:35:58;;;;;;;9.40;7.07;;;;;;;3.63;100.00;62374.56;4993501;28;20402;-77
2022/11/26 07:38:26;;;;;;;7.80;7.00;;;;;;;3.29;100.00;62338.16;4993247;28;20244;-77
2022/11/26 07:40:53;;;;;;;10.27;7.88;;;;;;;2.95;100.00;62305.69;5002592;28;20219;-77
2022/11/26 07:43:20;;;;;;;9.93;7.70;;;;;;;3.30;100.00;62339.16;4994948;28;20204;-78
2022/11/26 07:45:47;;;;;;;11.38;7.85;;;;;;;3.44;100.00;62350.53;4997986;28;20451;-78
2022/11/26 07:48:14;;;;;;;11.63;7.35;;;;;;;3.34;100.00;62345.78;4993087;28;20191;-78
2022/11/26 07:50:43;;;;;;;8.35;6.97;;;;;;;3.11;100.00;62314.59;4996839;28;20276;-77
2022/11/26 07:53:13;;;;;;;13.48;7.88;;;;;;;3.30;100.00;62339.16;4996798;28;20205;-77
2022/11/26 07:55:42;;;;;;;798.88;115.68;;;;;;;3.34;100.00;62338.25;4989611;28;20231;-80
2022/11/26 07:58:09;;;;;;;8.07;6.95;;;;;;;3.73;100.00;62384.88;5001208;28;20218;-78
2022/11/26 08:00:38;;;;;;;10.63;6.93;;;;;;;4.10;100.00;62422.94;4995745;28;20226;-79
2022/11/26 08:03:05;;;;;;;12.10;7.78;;;;;;;4.45;100.00;62456.44;4992704;28;20203;-78
2022/11/26 08:05:38;;;;;;;8.95;6.82;;;;;;;4.08;100.00;62416.34;5002442;28;20231;-79
2022/11/26 08:08:05;;;;;;;6.68;5.97;;;;;;;3.30;100.00;62341.69;4990209;28;20200;-78
2022/11/26 08:10:34;;;;;;;11.07;7.25;;;;;;;3.21;100.00;62331.91;4997402;28;20245;-79
2022/11/26 08:13:00;;;;;;;13.10;8.43;;;;;;;3.17;100.00;62328.31;5008160;28;20211;-83
2022/11/26 08:15:29;;;;;;;10.43;7.93;;;;;;;3.52;100.00;62359.25;4999484;28;20219;-80
2022/11/26 08:17:55;;;;;;;8.82;7.53;;;;;;;3.54;100.00;62363.31;4990723;28;20200;-80
2022/11/26 08:20:23;;;;;;;8.77;7.05;;;;;;;3.54;100.00;62363.31;4991138;28;20234;-78
2022/11/26 08:22:50;;;;;;;9.13;7.60;;;;;;;3.65;100.00;62377.16;4992166;28;20200;-79
2022/11/26 08:25:17;;;;;;;10.82;7.80;;;;;;;3.72;100.00;62381.84;5010477;28;20257;-81
2022/11/26 08:27:46;;;;;;;9.38;7.93;;;;;;;4.11;100.00;62424.47;5011146;28;20199;-79
2022/11/26 08:30:14;;;;;;;11.85;7.40;;;;;;;3.84;100.00;62398.69;4999434;28;20259;-80
2022/11/26 08:32:41;;;;;;;9.80;7.63;;;;;;;3.61;100.00;62370.53;4992303;28;20227;-81
2022/11/26 08:35:08;;;;;;;10.32;7.75;;;;;;;3.39;100.00;62348.41;4991050;28;20200;-79
2022/11/26 08:37:35;;;;;;;9.82;6.55;;;;;;;3.46;100.00;62357.63;4990771;28;20212;-81
2022/11/26 08:40:02;;;;;;;8.70;7.60;;;;;;;3.34;100.00;62340.25;5007517;28;20204;-78
2022/11/26 08:42:29;;;;;;;8.93;8.02;;;;;;;3.32;100.00;62338.19;5009537;28;20223;-79
2022/11/26 08:44:57;;;;;;;12.82;8.35;;;;;;;3.44;100.00;62350.53;5011502;28;20196;-78
2022/11/26 08:47:24;;;;;;;11.18;8.00;;;;;;;3.51;100.00;62357.72;5009753;28;20196;-78
2022/11/26 08:49:51;;;;;;;9.07;7.82;;;;;;;3.57;100.00;62371.44;5010467;28;20511;-79
2022/11/26 08:52:18;;;;;;;10.38;8.27;;;;;;;3.83;100.00;62393.13;5011079;28;20235;-78
2022/11/26 08:54:45;;;;;;;9.80;8.43;;;;;;;3.88;100.00;62395.25;5009056;28;20199;-80
2022/11/26 08:57:12;;;;;;;12.38;8.93;;;;;;;4.14;100.00;62425.03;4999725;28;20520;-79
2022/11/26 08:59:39;;;;;;;9.75;8.35;;;;;;;3.64;100.00;62376.13;4991041;28;20432;-78
2022/11/26 09:02:07;;;;;;;10.77;8.40;;;;;;;4.03;100.00;62413.72;4991376;28;20254;-78
2022/11/26 09:04:34;;;;;;;12.60;9.63;;;;;;;4.27;100.00;62438.41;4990086;28;20212;-78
2022/11/26 09:07:03;;;;;;;11.18;8.80;;;;;;;4.19;100.00;62430.19;4990433;28;20224;-80
2022/11/26 09:09:30;;;;;;;12.27;9.68;;;;;;;3.71;100.00;62382.81;4989575;28;20200;-79
2022/11/26 09:12:02;;;;;;;11.07;8.38;;;;;;;3.64;100.00;62371.09;4999011;28;20254;-78
2022/11/26 09:14:34;;;;;;;10.43;9.15;;;;;;;3.91;100.00;62403.38;5009497;28;20207;-78
2022/11/26 09:17:01;;;;;;;11.38;8.80;;;;;;;3.65;100.00;62374.63;5008862;28;20238;-78
2022/11/26 09:19:29;;;;;;;14.13;9.65;;;;;;;3.61;100.00;62380.59;5007521;28;20206;-77
2022/11/26 09:21:56;;;;;;;13.35;9.60;;;;;;;3.70;100.00;62381.78;4989993;28;20252;-78
2022/11/26 09:24:23;;;;;;;10.55;8.70;;;;;;;3.91;100.00;62401.38;4990074;28;20389;-77
2022/11/26 09:26:51;;;;;;;12.68;9.23;;;;;;;4.20;100.00;62430.69;4996861;28;20219;-77
2022/11/26 09:29:19;;;;;;;12.13;10.00;;;;;;;3.96;100.00;62409.03;4993655;28;20227;-80
2022/11/26 09:31:48;;;;;;;13.38;9.93;;;;;;;4.04;100.00;62412.22;5004383;28;20239;-78
2022/11/26 09:34:15;;;;;;;13.50;10.55;;;;;;;4.53;100.00;62462.66;5005923;28;20204;-77
2022/11/26 09:36:46;;;;;;;13.18;9.93;;;;;;;5.01;100.00;62516.06;5013577;28;20225;-78
2022/11/26 09:39:14;;;;;;;12.35;10.65;;;;;;;5.33;100.00;62547.03;5009004;28;20488;-78
2022/11/26 09:41:48;;;;;;;13.82;10.38;;;;;;;5.11;100.00;62526.38;4998995;28;20224;-77
2022/11/26 09:44:30;;;;;;;15.70;10.77;;;;;;;5.39;99.42;62552.69;4991215;28;20442;-81
2022/11/26 09:47:11;;;;;;;11.10;9.93;;;;;;;5.64;97.76;62576.44;5007109;28;20227;-77
2022/11/26 09:49:48;;;;;;;16.33;11.80;;;;;;;5.98;95.64;62610.97;4991577;28;20203;-77
2022/11/26 09:52:19;;;;;;;14.05;10.43;;;;;;;6.18;93.77;62636.66;4999736;28;20215;-77
2022/11/26 09:54:47;;;;;;;11.30;9.43;;;;;;;6.40;93.17;62656.78;5008500;28;20199;-79
2022/11/26 09:57:21;;;;;;;10.55;9.32;;;;;;;6.32;92.51;62655.63;5009283;28;20203;-77
2022/11/26 09:59:50;;;;;;;13.98;9.70;;;;;;;6.50;91.52;62672.19;5005678;28;20239;-77
2022/11/26 10:02:17;;;;;;;12.30;10.35;;;;;;;6.52;89.96;62671.69;5006770;28;20238;-77
2022/11/26 10:04:44;;;;;;;12.05;9.35;;;;;;;6.34;88.94;62653.16;5006688;28;20206;-77
2022/11/26 10:07:31;;;;;;;9.77;8.75;;;;;;;6.56;89.48;62675.31;5004628;28;20268;-76
2022/11/26 10:10:11;;;;;;;16.73;9.13;;;;;;;6.83;87.14;62701.13;4996639;28;20199;-77
2022/11/26 10:12:50;;;;;;;12.63;9.57;;;;;;;7.09;85.35;62732.53;5006706;28;20234;-77
2022/11/26 10:15:20;;;;;;;13.85;9.07;;;;;;;7.29;85.53;62750.63;5005327;28;20278;-78
2022/11/26 10:17:55;;;;;;;13.73;9.57;;;;;;;7.23;82.63;62741.38;4993421;28;20529;-77
2022/11/26 10:20:54;;;;;;;12.20;9.52;;;;;;;6.67;85.58;62684.66;5006507;28;20225;-76
2022/11/26 10:23:29;;;;;;;14.45;9.73;;;;;;;6.95;85.96;62716.03;5006748;28;20227;-77
2022/11/26 10:26:05;;;;;;;13.48;10.13;;;;;;;7.19;86.25;62737.25;4995944;28;20222;-77
2022/11/26 10:28:38;;;;;;;13.05;9.32;;;;;;;6.86;85.12;62701.19;5005324;28;20195;-77
2022/11/26 10:31:13;;;;;;;12.98;10.27;;;;;;;6.18;89.47;62636.13;5007293;28;20243;-78
2022/11/26 10:33:48;;;;;;;11.98;9.40;;;;;;;6.32;90.23;62648.03;5003190;28;20274;-78
2022/11/26 10:36:22;;;;;;;13.10;10.18;;;;;;;6.50;89.71;62667.13;4996522;28;20217;-78
2022/11/26 10:38:50;;;;;;;15.88;10.93;;;;;;;6.61;87.94;62675.41;5008289;28;20198;-78
2022/11/26 10:41:18;;;;;;;12.98;10.52;;;;;;;5.95;91.34;62615.47;5006783;28;20262;-77
2022/11/26 10:43:45;;;;;;;13.38;10.48;;;;;;;6.10;91.54;62627.88;5005412;28;20204;-78
2022/11/26 10:46:30;;;;;;;12.65;11.02;;;;;;;6.35;90.89;62651.13;5006844;28;20278;-77
2022/11/26 10:49:16;;;;;;;13.85;10.52;;;;;;;6.61;88.31;62677.94;4993586;28;20192;-79
2022/11/26 10:51:47;;;;;;;12.32;9.07;;;;;;;6.56;87.81;62672.78;4990175;28;20262;-79
2022/11/26 10:54:25;;;;;;;14.93;10.18;;;;;;;6.52;88.49;62671.19;5001058;28;20199;-77
2022/11/26 10:56:53;;;;;;;19.05;10.88;;;;;;;6.60;88.54;62681.97;5000581;28;20223;-78
2022/11/26 10:59:27;;;;;;;13.93;10.38;;;;;;;6.69;86.07;62686.19;4991461;28;20207;-78
2022/11/26 11:01:55;;;;;;;14.85;10.18;;;;;;;6.30;87.29;62649.00;4995300;28;20224;-78
2022/11/26 11:04:30;;;;;;;12.02;10.02;;;;;;;6.56;86.96;62672.78;4988300;28;20200;-78
2022/11/26 11:06:57;;;;;;;16.25;10.85;;;;;;;6.71;85.28;62688.25;4998024;28;20210;-79
2022/11/26 11:09:29;;;;;;;13.85;9.88;;;;;;;6.68;84.99;62687.69;4996481;28;20545;-77
2022/11/26 11:12:17;;;;;;;14.02;10.80;;;;;;;6.41;85.65;62667.44;5003142;28;20234;-78
2022/11/26 11:14:45;;;;;;;17.17;10.18;;;;;;;6.43;85.44;62659.38;5003499;28;20218;-79
2022/11/26 11:17:32;;;;;;;13.73;10.13;;;;;;;6.41;86.27;62659.84;5000042;28;20227;-78
2022/11/26 11:20:01;;;;;;;14.95;10.73;;;;;;;6.46;85.94;62663.00;4996755;28;20242;-78
2022/11/26 11:22:28;;;;;;;13.02;9.90;;;;;;;6.64;85.72;62679.00;4995335;28;20215;-78
2022/11/26 11:24:59;;;;;;;23.75;10.30;;;;;;;6.73;85.31;62692.84;4994789;28;20215;-77
2022/11/26 11:27:32;;;;;;;18.27;11.30;;;;;;;6.82;85.17;62700.13;5002958;28;20187;-78
2022/11/26 11:30:01;;;;;;;14.07;10.63;;;;;;;6.56;85.23;62670.75;4993321;28;20496;-76
2022/11/26 11:32:38;;;;;;;16.70;10.35;;;;;;;6.42;86.32;62661.38;5005193;28;20241;-77
2022/11/26 11:35:20;;;;;;;13.77;11.45;;;;;;;6.19;88.29;62640.22;5005353;28;20225;-77
2022/11/26 11:37:49;;;;;;;17.30;10.68;;;;;;;6.22;88.45;62643.31;5005608;28;20373;-78
2022/11/26 11:40:24;;;;;;;15.38;10.98;;;;;;;6.26;89.39;62642.38;5004877;28;20259;-77
2022/11/26 11:42:54;;;;;;;17.45;11.05;;;;;;;6.49;87.34;62668.09;5004846;28;20289;-77